Time;durP1;ratioP1;P1;durP2;ratioP2;P2;SDS_P1;SDS_P2;PMS_P1;PMS_P2;Temp;Humidity;BMP_temperature;BMP_pressure;BME280_temperature;BME280_humidity;BME280_pressure;Samples;Min_cycle;Max_cycle;Signal;HPM_P1;HPM_P2
2022/12/17 13:08:18;;;;;;;7.80;5.07;;;;;;;;;;5026776;28;20103;-80
2022/12/17 13:10:44;;;;;;;8.43;4.70;;;;;;;;;;5028980;28;20033;-80
2022/12/17 13:13:17;;;;;;;9.45;4.65;;;;;;;;;;5035516;28;20040;-79
2022/12/17 13:15:47;;;;;;;10.38;5.30;;;;;;;;;;5021568;28;20044;-80
2022/12/17 13:18:32;;;;;;;12.88;5.20;;;;;;;;;;5026972;28;20657;-79
2022/12/17 13:20:58;;;;;;;10.55;5.05;;;;;;;;;;5025946;28;20041;-82
2022/12/17 13:23:26;;;;;;;10.88;6.05;;;;;;;;;;5029295;28;20105;-78
2022/12/17 13:26:11;;;;;;;10.32;5.15;;;;;;;;;;5047415;28;20068;-81
2022/12/17 13:28:38;;;;;;;6.13;4.07;;;;;;;;;;5031087;28;20037;-79
2022/12/17 13:31:05;;;;;;;11.10;5.45;;;;;;;;;;5036376;28;20112;-79
2022/12/17 13:33:40;;;;;;;10.57;5.47;;;;;;;;;;5040998;28;20035;-78
2022/12/17 13:36:12;;;;;;;10.52;5.32;;;;;;;;;;5038666;28;20075;-78
2022/12/17 13:38:53;;;;;;;10.57;7.13;;;;;;;;;;5026939;28;20025;-80
2022/12/17 13:41:20;;;;;;;9.75;5.20;;;;;;;;;;5036481;28;20043;-82
2022/12/17 13:43:49;;;;;;;9.02;4.45;;;;;;;;;;5025280;28;20059;-80
2022/12/17 13:46:18;;;;;;;9.77;4.68;;;;;;;;;;5032474;28;20044;-80
2022/12/17 13:48:51;;;;;;;9.95;5.30;;;;;;;;;;5046285;28;20066;-80
2022/12/17 13:51:18;;;;;;;4.53;4.07;;;;;;;;;;5033108;28;20029;-80
2022/12/17 13:53:55;;;;;;;9.32;4.82;;;-3.50;99.90;;;;;;5046518;28;20400;-79
2022/12/17 13:56:22;;;;;;;14.40;5.35;;;;;;;;;;5043601;28;20435;-82
2022/12/17 13:58:51;;;;;;;9.48;4.28;;;-3.40;99.90;;;;;;5032199;28;20128;-82
2022/12/17 14:01:17;;;;;;;10.50;5.43;;;;;;;;;;5040018;28;20148;-82
2022/12/17 14:03:48;;;;;;;9.48;4.75;;;;;;;;;;5042980;28;20064;-79
2022/12/17 14:06:14;;;;;;;6.63;4.43;;;;;;;;;;5040745;28;20048;-81
2022/12/17 14:08:41;;;;;;;20.48;5.78;;;;;;;;;;5039971;28;20021;-81
2022/12/17 14:13:52;;;;;;;5.80;4.10;;;;;;;;;;5035468;28;20113;-79
2022/12/17 14:16:19;;;;;;;7.32;4.22;;;;;;;;;;5027386;28;20033;-78
2022/12/17 14:18:47;;;;;;;9.93;4.43;;;;;;;;;;5033326;28;20060;-81
2022/12/17 14:21:13;;;;;;;7.10;4.22;;;;;;;;;;5042480;28;20429;-78
2022/12/17 14:23:40;;;;;;;13.23;7.78;;;;;;;;;;5026628;28;20045;-81
2022/12/17 14:26:08;;;;;;;7.32;5.85;;;;;;;;;;5029311;28;21376;-79
2022/12/17 14:28:36;;;;;;;12.15;7.18;;;;;;;;;;5033921;28;20488;-80
2022/12/17 14:31:14;;;;;;;10.45;4.78;;;;;;;;;;5039785;28;20135;-81
2022/12/17 14:33:41;;;;;;;8.38;4.43;;;;;;;;;;5037571;28;20037;-78
2022/12/17 14:36:18;;;;;;;11.38;7.38;;;-4.00;99.90;;;;;;5045301;28;20033;-81
2022/12/17 14:38:52;;;;;;;16.80;8.73;;;-4.90;99.90;;;;;;5044722;28;20029;-81
2022/12/17 14:44:03;;;;;;;9.70;6.15;;;;;;;;;;5038297;28;20075;-81
2022/12/17 14:46:30;;;;;;;7.72;4.70;;;;;;;;;;5042716;28;20033;-79
2022/12/17 14:48:59;;;;;;;12.80;6.30;;;;;;;;;;5042743;28;20378;-82
2022/12/17 14:51:36;;;;;;;19.15;9.93;;;;;;;;;;5048452;28;20412;-78
2022/12/17 14:54:18;;;;;;;26.80;8.60;;;-4.20;99.90;;;;;;5050092;28;20045;-82
2022/12/17 14:56:44;;;;;;;8.63;5.50;;;;;;;;;;5049919;28;20082;-83
2022/12/17 14:59:30;;;;;;;6.90;4.63;;;;;;;;;;5044816;28;20733;-83
2022/12/17 15:01:57;;;;;;;9.90;3.95;;;;;;;;;;5040942;28;20574;-82
2022/12/17 15:04:23;;;;;;;6.47;3.95;;;;;;;;;;5045438;28;20064;-80
2022/12/17 15:06:49;;;;;;;5.80;3.70;;;;;;;;;;5045138;28;20064;-78
2022/12/17 15:09:15;;;;;;;4.78;4.28;;;;;;;;;;5043778;28;20388;-83
2022/12/17 15:11:41;;;;;;;10.52;6.22;;;;;;;;;;5044743;28;20028;-83
2022/12/17 15:14:07;;;;;;;9.55;4.07;;;;;;;;;;5035270;28;20083;-79
2022/12/17 15:16:33;;;;;;;7.60;5.25;;;;;;;;;;5049934;28;20029;-81
2022/12/17 15:19:00;;;;;;;8.23;6.50;;;;;;;;;;5037757;28;20034;-80
2022/12/17 15:21:26;;;;;;;15.48;8.70;;;;;;;;;;5048748;28;20038;-82
2022/12/17 15:23:52;;;;;;;19.92;10.32;;;;;;;;;;5050803;28;20021;-81
2022/12/17 15:26:18;;;;;;;30.38;11.48;;;;;;;;;;5048430;28;20041;-81
2022/12/17 15:28:45;;;;;;;16.40;8.48;;;;;;;;;;5039681;28;20031;-82
2022/12/17 15:31:12;;;;;;;12.73;7.32;;;;;;;;;;5049428;28;20035;-82
2022/12/17 15:33:38;;;;;;;27.70;13.93;;;;;;;;;;5046021;28;20021;-79
2022/12/17 15:36:04;;;;;;;34.03;18.20;;;;;;;;;;5048781;28;20121;-80
2022/12/17 15:38:30;;;;;;;46.97;22.27;;;;;;;;;;5041361;28;20044;-80
2022/12/17 15:40:58;;;;;;;23.17;13.23;;;;;;;;;;5051323;28;20025;-80
2022/12/17 15:43:24;;;;;;;28.17;17.05;;;;;;;;;;5044375;28;20017;-81
2022/12/17 15:45:51;;;;;;;21.55;13.23;;;;;;;;;;5046728;28;20396;-80
2022/12/17 15:48:22;;;;;;;13.18;9.05;;;-6.00;99.90;;;;;;5045890;28;20029;-81
2022/12/17 15:50:48;;;;;;;18.63;12.27;;;;;;;;;;5052572;28;20024;-81
2022/12/17 15:53:14;;;;;;;15.45;9.38;;;;;;;;;;5048975;28;20101;-81
2022/12/17 15:55:41;;;;;;;13.30;6.20;;;;;;;;;;5057404;28;20024;-81
2022/12/17 15:58:09;;;;;;;11.57;5.25;;;;;;;;;;5047675;28;20036;-80
2022/12/17 16:00:35;;;;;;;21.80;9.40;;;;;;;;;;5051545;28;20030;-80
2022/12/17 16:03:01;;;;;;;12.43;10.13;;;;;;;;;;5043897;28;20052;-80
2022/12/17 16:05:27;;;;;;;14.68;8.82;;;;;;;;;;5054033;28;20025;-82
2022/12/17 16:07:57;;;;;;;11.82;7.90;;;;;;;;;;5052855;28;20021;-81
2022/12/17 16:10:23;;;;;;;9.90;7.63;;;;;;;;;;5056147;28;20041;-80
2022/12/17 16:12:49;;;;;;;7.60;4.05;;;;;;;;;;5051161;28;20029;-80
2022/12/17 16:15:15;;;;;;;11.32;5.45;;;;;;;;;;5044930;28;20025;-80
2022/12/17 16:17:41;;;;;;;8.95;3.72;;;;;;;;;;5050748;28;20528;-80
2022/12/17 16:20:07;;;;;;;3.45;3.15;;;;;;;;;;5051182;28;20025;-79
2022/12/17 16:22:33;;;;;;;9.32;3.65;;;;;;;;;;5058023;28;20509;-78
2022/12/17 16:24:59;;;;;;;2.28;2.08;;;;;;;;;;5057832;28;20036;-80
2022/12/17 16:27:25;;;;;;;9.65;4.22;;;;;;;;;;5047530;28;20046;-80
2022/12/17 16:29:51;;;;;;;5.57;4.30;;;;;;;;;;5050963;28;20100;-81
2022/12/17 16:32:17;;;;;;;4.28;2.97;;;;;;;;;;5052886;28;20033;-79
2022/12/17 16:34:44;;;;;;;5.90;3.75;;;;;;;;;;5053835;28;20032;-81
2022/12/17 16:37:10;;;;;;;4.93;3.17;;;;;;;;;;5044510;28;20032;-79
2022/12/17 16:39:36;;;;;;;6.55;3.75;;;;;;;;;;5059966;28;20107;-80
2022/12/17 16:42:02;;;;;;;10.98;6.45;;;;;;;;;;5054328;28;20075;-81
2022/12/17 16:44:28;;;;;;;6.55;5.43;;;;;;;;;;5045838;28;20056;-80
2022/12/17 16:46:54;;;;;;;12.20;6.03;;;;;;;;;;5049833;28;20594;-81
2022/12/17 16:49:22;;;;;;;6.93;4.78;;;;;;;;;;5053736;28;20477;-80
2022/12/17 16:51:52;;;;;;;6.65;4.55;;;;;;;;;;5055980;28;20029;-80
2022/12/17 16:54:22;;;;;;;10.00;7.10;;;;;;;;;;5053714;28;20060;-79
2022/12/17 16:56:48;;;;;;;8.77;4.90;;;;;;;;;;5049659;28;20025;-80
2022/12/17 16:59:15;;;;;;;10.55;5.60;;;;;;;;;;5049403;28;20477;-81
2022/12/17 17:01:43;;;;;;;6.43;4.25;;;-8.00;99.90;;;;;;5053327;28;20067;-79
2022/12/17 17:04:10;;;;;;;5.75;4.78;;;;;;;;;;5054565;28;20025;-79
2022/12/17 17:06:39;;;;;;;4.85;4.05;;;;;;;;;;5053801;28;20480;-79
2022/12/17 17:09:05;;;;;;;4.80;4.40;;;;;;;;;;5054116;28;21834;-81
2022/12/17 17:11:32;;;;;;;5.45;4.30;;;;;;;;;;5052231;28;20106;-81
2022/12/17 17:13:58;;;;;;;4.65;4.32;;;;;;;;;;5054287;28;20032;-80
2022/12/17 17:16:24;;;;;;;4.63;3.63;;;;;;;;;;5052490;28;20040;-79
2022/12/17 17:18:50;;;;;;;9.32;5.38;;;;;;;;;;5033183;28;20079;-79
2022/12/17 17:21:22;;;;;;;5.13;4.25;;;;;;;;;;5057828;28;20184;-79
2022/12/17 17:23:55;;;;;;;8.55;5.20;;;-8.20;99.90;;;;;;5055880;28;20100;-81
2022/12/17 17:26:21;;;;;;;15.45;6.30;;;;;;;;;;5059065;28;20127;-81
2022/12/17 17:28:47;;;;;;;7.30;4.30;;;;;;;;;;5048194;28;20032;-82
2022/12/17 17:31:14;;;;;;;3.95;3.38;;;-8.30;99.90;;;;;;5055240;28;20037;-81
2022/12/17 17:33:47;;;;;;;9.10;5.82;;;;;;;;;;5058021;28;20025;-81
2022/12/17 17:36:22;;;;;;;1.73;1.63;;;-9.10;99.90;;;;;;5054006;28;20029;-81
2022/12/17 17:38:48;;;;;;;3.85;3.53;;;;;;;;;;5047130;28;20620;-80
2022/12/17 17:41:16;;;;;;;11.70;6.93;;;;;;;;;;5056024;28;20552;-80
2022/12/17 17:43:43;;;;;;;10.20;6.70;;;;;;;;;;5047417;28;20388;-79
2022/12/17 17:46:13;;;;;;;4.65;4.25;;;;;;;;;;5051406;28;20041;-80
2022/12/17 17:48:39;;;;;;;5.57;4.53;;;;;;;;;;5059040;28;20028;-79
2022/12/17 17:51:07;;;;;;;5.38;3.80;;;;;;;;;;5060769;28;20025;-81
2022/12/17 17:53:33;;;;;;;4.57;3.17;;;;;;;;;;5049291;28;20025;-77
2022/12/17 17:56:03;;;;;;;5.10;3.35;;;;;;;;;;5056164;28;20059;-81
2022/12/17 17:58:30;;;;;;;6.53;4.38;;;;;;;;;;5051464;28;20098;-80
2022/12/17 18:00:56;;;;;;;12.00;3.80;;;;;;;;;;5044682;28;20608;-80
2022/12/17 18:03:21;;;;;;;10.30;4.80;;;;;;;;;;5053450;28;20064;-80
2022/12/17 18:05:47;;;;;;;7.85;2.63;;;;;;;;;;5053083;28;20044;-80
2022/12/17 18:08:13;;;;;;;7.47;3.80;;;;;;;;;;5042168;28;20037;-80
2022/12/17 18:10:39;;;;;;;4.53;3.95;;;;;;;;;;5051710;28;20048;-80
2022/12/17 18:15:50;;;;;;;3.00;2.00;;;;;;;;;;5052499;28;20039;-78
2022/12/17 18:18:16;;;;;;;3.15;2.92;;;;;;;;;;5044166;28;20059;-80
2022/12/17 18:20:42;;;;;;;4.30;2.47;;;;;;;;;;5047341;28;20442;-79
2022/12/17 18:23:08;;;;;;;32.10;5.63;;;;;;;;;;5054004;28;20025;-78
2022/12/17 18:25:34;;;;;;;6.93;3.20;;;;;;;;;;5052115;28;20043;-80
2022/12/17 18:28:01;;;;;;;12.52;5.22;;;;;;;;;;5044627;28;20041;-82
2022/12/17 18:30:27;;;;;;;3.40;3.08;;;;;;;;;;5036354;28;20035;-79
2022/12/17 18:32:54;;;;;;;3.28;3.05;;;;;;;;;;5046059;28;20072;-80
2022/12/17 18:35:20;;;;;;;3.15;2.90;;;;;;;;;;5050957;28;20029;-80
2022/12/17 18:37:46;;;;;;;3.50;2.53;;;;;;;;;;5052328;28;20039;-80
2022/12/17 18:40:12;;;;;;;6.72;4.88;;;;;;;;;;5050152;28;20035;-80
2022/12/17 18:45:22;;;;;;;8.02;4.68;;;;;;;;;;5051280;28;20048;-81
2022/12/17 18:47:48;;;;;;;;;;;;;;;;;;5050849;28;20114;-78
2022/12/17 18:50:14;;;;;;;7.22;3.42;;;;;;;;;;5050266;28;20372;-81
2022/12/17 18:52:40;;;;;;;4.45;4.10;;;;;;;;;;5044584;28;20041;-79
2022/12/17 18:55:07;;;;;;;5.15;4.78;;;;;;;;;;5053626;28;20045;-80
2022/12/17 18:57:33;;;;;;;12.73;4.78;;;;;;;;;;5044049;28;20025;-80
2022/12/17 18:59:59;;;;;;;2.63;2.42;;;;;;;;;;5049901;28;20036;-79
2022/12/17 19:02:25;;;;;;;6.30;4.22;;;;;;;;;;5046827;28;20064;-80
2022/12/17 19:04:51;;;;;;;10.98;3.92;;;;;;;;;;5033116;28;20022;-78
2022/12/17 19:07:17;;;;;;;8.27;3.25;;;;;;;;;;5039707;28;20036;-80
2022/12/17 19:09:43;;;;;;;2.47;1.95;;;;;;;;;;5038956;28;20166;-77
2022/12/17 19:12:09;;;;;;;23.00;3.75;;;;;;;;;;5029844;28;20033;-78
2022/12/17 19:14:36;;;;;;;5.93;4.40;;;;;;;;;;5040136;28;20021;-80
2022/12/17 19:17:02;;;;;;;3.55;3.28;;;;;;;;;;5043336;28;20308;-80
2022/12/17 19:19:28;;;;;;;5.30;3.83;;;;;;;;;;5042037;28;20033;-78
2022/12/17 19:21:54;;;;;;;8.35;4.00;;;;;;;;;;5040633;28;20565;-79
2022/12/17 19:24:20;;;;;;;12.52;7.22;;;;;;;;;;5047316;28;20025;-78
2022/12/17 19:26:47;;;;;;;2.45;2.15;;;;;;;;;;5054541;28;20183;-79
2022/12/17 19:29:13;;;;;;;10.10;3.85;;;;;;;;;;5051395;28;20029;-79
2022/12/17 19:31:40;;;;;;;4.88;4.10;;;;;;;;;;5052682;28;20028;-78
2022/12/17 19:34:06;;;;;;;5.72;3.70;;;;;;;;;;5056939;28;20492;-79
2022/12/17 19:36:34;;;;;;;4.75;3.92;;;;;;;;;;5045611;28;20029;-78
2022/12/17 19:39:01;;;;;;;6.32;3.55;;;;;;;;;;5050431;28;20367;-78
2022/12/17 19:41:27;;;;;;;10.23;2.97;;;;;;;;;;5051858;28;20032;-78
2022/12/17 19:43:57;;;;;;;3.70;3.40;;;;;;;;;;5055175;28;20084;-78
2022/12/17 19:46:23;;;;;;;9.13;6.05;;;;;;;;;;5043097;28;20072;-78
2022/12/17 19:48:50;;;;;;;4.40;3.70;;;;;;;;;;5037327;28;20108;-77
2022/12/17 19:51:18;;;;;;;9.50;5.00;;;;;;;;;;5048400;28;20378;-78
2022/12/17 19:53:44;;;;;;;6.93;4.78;;;;;;;;;;5050492;28;20078;-77
2022/12/17 19:56:15;;;;;;;7.03;3.10;;;;;;;;;;5049088;28;20025;-81
2022/12/17 19:58:42;;;;;;;5.07;3.83;;;;;;;;;;5039525;28;20040;-78
2022/12/17 20:01:09;;;;;;;2.47;2.28;;;;;;;;;;5043814;28;20036;-78
2022/12/17 20:03:36;;;;;;;4.57;3.83;;;;;;;;;;5041348;28;21179;-78
2022/12/17 20:06:02;;;;;;;6.88;4.63;;;;;;;;;;5047329;28;20041;-80
2022/12/17 20:08:28;;;;;;;2.80;2.58;;;;;;;;;;5050982;28;20501;-79
2022/12/17 20:10:54;;;;;;;5.35;3.55;;;;;;;;;;5049564;28;20079;-78
2022/12/17 20:13:20;;;;;;;3.75;3.42;;;;;;;;;;5038589;28;20033;-78
2022/12/17 20:15:46;;;;;;;1.70;1.60;;;;;;;;;;5046727;28;20040;-77
2022/12/17 20:18:12;;;;;;;4.53;4.10;;;;;;;;;;5053444;28;20032;-78
2022/12/17 20:20:38;;;;;;;6.65;4.55;;;;;;;;;;5059922;28;20033;-79
2022/12/17 20:23:04;;;;;;;9.07;2.15;;;;;;;;;;5059236;28;20025;-77
2022/12/17 20:25:30;;;;;;;4.60;3.90;;;;;;;;;;5051472;28;20378;-78
2022/12/17 20:27:56;;;;;;;6.03;5.40;;;;;;;;;;5050044;28;20037;-79
2022/12/17 20:30:22;;;;;;;4.43;3.15;;;;;;;;;;5051218;28;20025;-79
2022/12/17 20:32:52;;;;;;;1.98;1.88;;;;;;;;;;5060359;28;20025;-77
2022/12/17 20:35:18;;;;;;;;;;;;;;;;;;5060572;28;20025;-79
2022/12/17 20:37:43;;;;;;;;;;;;;;;;;;5056602;28;19909;-78
2022/12/17 20:40:09;;;;;;;;;;;;;;;;;;5057102;28;19920;-75
2022/12/17 20:42:35;;;;;;;;;;;;;;;;;;5046434;28;20373;-78
2022/12/17 20:45:01;;;;;;;;;;;;;;;;;;5051608;28;19916;-77
2022/12/17 20:47:27;;;;;;;;;;;;;;;;;;5038184;28;19917;-78
2022/12/17 20:49:53;;;;;;;;;;;;;;;;;;5055099;28;19994;-80
2022/12/17 20:52:19;;;;;;;;;;;;;;;;;;5054689;28;19917;-76
2022/12/17 20:54:45;;;;;;;;;;;;;;;;;;5041450;28;19916;-78
2022/12/17 20:57:10;;;;;;;;;;;;;;;;;;5033172;28;19921;-78
2022/12/17 20:59:36;;;;;;;;;;;;;;;;;;5038029;28;19915;-81
2022/12/17 21:02:02;;;;;;;;;;;;;;;;;;5039774;28;19920;-77
2022/12/17 21:04:28;;;;;;;;;;;;;;;;;;5035451;28;19909;-77
2022/12/17 21:06:54;;;;;;;;;;;;;;;;;;5049821;28;19925;-79
2022/12/17 21:09:21;;;;;;;;;;;;;;;;;;5043267;28;19945;-78
2022/12/17 21:11:47;;;;;;;;;;;;;;;;;;5049756;28;19967;-78
2022/12/17 21:14:13;;;;;;;;;;;;;;;;;;5046034;28;19909;-79
2022/12/17 21:16:39;;;;;;;;;;;;;;;;;;5053008;28;19916;-78
2022/12/17 21:19:05;;;;;;;;;;;;;;;;;;5043710;28;19913;-79
2022/12/17 21:21:31;;;;;;;;;;;;;;;;;;5041301;28;20008;-79
2022/12/17 21:23:56;;;;;;;;;;;;;;;;;;5043175;28;19923;-78
2022/12/17 21:26:22;;;;;;;;;;;;;;;;;;5050889;28;19924;-78
2022/12/17 21:28:48;;;;;;;;;;;;;;;;;;5035836;28;19920;-80
2022/12/17 21:31:14;;;;;;;;;;;;;;;;;;5050228;28;20439;-80
2022/12/17 21:33:40;;;;;;;;;;;;;;;;;;5039021;28;19958;-79
2022/12/17 21:36:06;;;;;;;;;;;;;;;;;;5043960;28;19913;-79
2022/12/17 21:38:32;;;;;;;;;;;;;;;;;;5034791;28;19924;-78
2022/12/17 21:40:58;;;;;;;;;;;;;;;;;;5042534;28;20361;-77
2022/12/17 21:43:24;;;;;;;;;;;;;;;;;;5046127;28;19953;-78
2022/12/17 21:45:50;;;;;;;;;;;;;;;;;;5043291;28;19914;-78
2022/12/17 21:48:15;;;;;;;;;;;;;;;;;;5039308;28;20373;-78
2022/12/17 21:50:41;;;;;;;;;;;;;;;;;;5041135;28;19916;-79
2022/12/17 21:53:07;;;;;;;;;;;;;;;;;;5037987;28;20363;-79
2022/12/17 21:55:33;;;;;;;;;;;;;;;;;;5040599;28;20019;-77
2022/12/17 21:57:59;;;;;;;;;;;;;;;;;;5041753;28;20403;-79
2022/12/17 22:00:25;;;;;;;;;;;;;;;;;;5023988;28;19951;-79
2022/12/17 22:02:52;;;;;;;;;;;;;;;;;;5048031;28;19974;-79
2022/12/17 22:05:17;;;;;;;;;;;;;;;;;;5038574;28;20107;-78
2022/12/17 22:07:43;;;;;;;;;;;;;;;;;;5046438;28;19920;-79
2022/12/17 22:10:09;;;;;;;;;;;;;;;;;;5051802;28;20566;-77
2022/12/17 22:15:20;;;;;;;;;;;;;;;;;;5042425;28;19943;-78
2022/12/17 22:17:46;;;;;;;;;;;;;;;;;;5052172;28;19913;-78
2022/12/17 22:20:12;;;;;;;;;;;;;;;;;;5039817;28;20640;-79
2022/12/17 22:22:38;;;;;;;;;;;;;;;;;;5039682;28;19916;-77
2022/12/17 22:25:04;;;;;;;;;;;;;;;;;;5043114;28;19909;-79
2022/12/17 22:27:29;;;;;;;;;;;;;;;;;;5049611;28;19977;-80
2022/12/17 22:35:25;;;;;;;;;;;;;;;;;;5048366;28;19943;-79
2022/12/17 22:37:51;;;;;;;;;;;-10.80;99.90;;;;;;5042800;28;19913;-80
2022/12/17 22:40:17;;;;;;;;;;;-10.80;99.90;;;;;;5044414;28;19958;-81
2022/12/17 22:45:27;;;;;;;;;;;;;;;;;;5040806;28;19916;-79
2022/12/17 22:47:53;;;;;;;;;;;;;;;;;;5044606;28;19936;-77
2022/12/17 22:50:19;;;;;;;;;;;;;;;;;;5041193;28;19996;-79
2022/12/17 22:52:44;;;;;;;;;;;-10.80;99.90;;;;;;5057443;28;19903;-77
2022/12/17 22:55:10;;;;;;;;;;;;;;;;;;5061464;28;19917;-76
2022/12/17 22:57:36;;;;;;;;;;;;;;;;;;5062006;28;19904;-78
2022/12/17 23:00:02;;;;;;;;;;;;;;;;;;5047712;28;22760;-80
2022/12/17 23:02:27;;;;;;;;;;;;;;;;;;5038560;28;19954;-77
2022/12/17 23:04:53;;;;;;;;;;;;;;;;;;5043322;28;19909;-79
2022/12/17 23:07:20;;;;;;;;;;;;;;;;;;5047925;28;19967;-78
2022/12/17 23:09:46;;;;;;;;;;;;;;;;;;5041067;28;20330;-81
2022/12/17 23:14:56;;;;;;;;;;;;;;;;;;5044454;28;19927;-78
2022/12/17 23:17:22;;;;;;;;;;;;;;;;;;5036610;28;19920;-79
2022/12/17 23:19:48;;;;;;;;;;;;;;;;;;5033748;28;20365;-80
2022/12/17 23:22:14;;;;;;;;;;;;;;;;;;5048872;28;19917;-77
2022/12/17 23:24:40;;;;;;;;;;;;;;;;;;5041589;28;19938;-79
2022/12/17 23:27:06;;;;;;;;;;;;;;;;;;5039974;28;20324;-78
2022/12/17 23:29:32;;;;;;;;;;;;;;;;;;5046037;28;19917;-79
2022/12/17 23:31:57;;;;;;;;;;;;;;;;;;5040964;28;20388;-78
2022/12/17 23:34:23;;;;;;;;;;;;;;;;;;5040793;28;19939;-79
2022/12/17 23:36:49;;;;;;;;;;;;;;;;;;5042681;28;19913;-80
2022/12/17 23:39:15;;;;;;;;;;;;;;;;;;5046551;28;20029;-78
2022/12/17 23:41:41;;;;;;;;;;;;;;;;;;5050902;28;19915;-79
2022/12/17 23:44:07;;;;;;;;;;;;;;;;;;5041857;28;19924;-78
2022/12/17 23:46:33;;;;;;;;;;;-11.00;99.90;;;;;;5040222;28;19921;-77
2022/12/17 23:48:58;;;;;;;;;;;;;;;;;;5044398;28;19912;-76
2022/12/17 23:51:24;;;;;;;;;;;;;;;;;;5035878;28;19912;-79
2022/12/17 23:53:50;;;;;;;;;;;;;;;;;;5047687;28;21133;-76
2022/12/17 23:56:16;;;;;;;;;;;;;;;;;;5038881;28;19967;-78
2022/12/17 23:58:42;;;;;;;;;;;;;;;;;;5039923;28;20262;-77
